Terminal Aerodrome Forecast
Issued by NWS Sioux Falls, SD

Home | Current Version | Previous Version | Graphics & Text | Print | Product List | Glossary On
Versions: 1 2 3 4 5 6 7 8 9 10 11 12 13 14 15 16 17 18 19 20 21 22 23 24
000
FTUS43 KFSD 221622 AAA
TAFHON
TAF AMD
KHON 221622Z 2216/2312 31006KT P6SM SCT015 OVC040
     FM221900 32008KT 5SM -SN BR OVC010
     FM230200 35010KT 3SM -SN BR OVC008
     FM230800 34014KT 2SM -SN OVC007=

USA.gov is the U.S. government's official web portal to all federal, state and local government web resources and services.